Terminal Aerodrome Forecast
Issued by NWS Mobile, AL

Home | Current Version | Previous Version | Text Only | Print | Product List | Glossary On
Versions: 1 2 3 4 5 6 7 8 9 10 11 12 13
000
FTUS44 KMOB 181354 AAA
TAFPNS
TAF AMD
KPNS 181354Z 1814/1912 17007KT P6SM BKN029 OVC040
     FM181500 20013KT P6SM OVC050
     FM190300 21012KT P6SM VCSH OVC025
     FM190600 33015KT P6SM BKN050=

USA.gov is the U.S. government's official web portal to all federal, state and local government web resources and services.